Time;durP1;ratioP1;P1;durP2;ratioP2;P2;SDS_P1;SDS_P2;PMS_P1;PMS_P2;Temp;Humidity;BMP_temperature;BMP_pressure;BME280_temperature;BME280_humidity;BME280_pressure;Samples;Min_cycle;Max_cycle;Signal;HPM_P1;HPM_P2
2023/01/29 00:01:22;;;;;;;0.50;0.50;;;;;;;3.96;83.23;96980.59;5004010;28;20092;-61
2023/01/29 00:03:51;;;;;;;0.50;0.50;;;;;;;3.95;83.63;96981.69;5004555;28;20054;-59
2023/01/29 00:06:18;;;;;;;0.40;0.40;;;;;;;3.96;84.40;96980.59;5003311;28;20084;-58
2023/01/29 00:08:45;;;;;;;0.50;0.50;;;;;;;4.04;84.38;96981.66;5003353;28;20053;-58
2023/01/29 00:11:12;;;;;;;7.85;3.60;;;;;;;3.92;84.02;96960.44;5004115;28;20061;-56
2023/01/29 00:13:40;;;;;;;1.67;1.45;;;;;;;3.98;83.25;96983.78;5004640;28;20049;-56
2023/01/29 00:16:07;;;;;;;0.40;0.40;;;;;;;4.02;82.41;96979.25;5004441;28;20085;-58
2023/01/29 00:18:37;;;;;;;0.40;0.40;;;;;;;3.96;82.70;96997.03;5004378;28;20480;-56
2023/01/29 00:21:11;;;;;;;0.40;0.40;;;;;;;3.96;82.50;96994.28;5004102;28;20085;-58
2023/01/29 00:23:38;;;;;;;0.50;0.50;;;;;;;3.97;82.69;96987.66;5000676;28;20101;-56
2023/01/29 00:26:05;;;;;;;0.50;0.50;;;;;;;3.98;81.76;96983.78;4984531;28;20537;-58
2023/01/29 00:28:32;;;;;;;0.60;0.60;;;;;;;3.92;81.99;96990.56;4985056;28;20504;-56
2023/01/29 00:31:23;;;;;;;0.40;0.40;;;;;;;3.46;81.75;96916.69;4999029;28;20058;-56
2023/01/29 00:33:51;;;;;;;0.50;0.50;;;;;;;3.87;83.33;97001.72;5004335;28;20058;-58
2023/01/29 00:36:19;;;;;;;0.40;0.40;;;;;;;3.76;83.97;96975.81;5003537;28;20050;-57
2023/01/29 00:38:53;;;;;;;0.88;0.88;;;;;;;3.82;84.64;97001.09;5004134;28;20092;-58
2023/01/29 00:46:51;;;;;;;0.50;0.50;;;;;;;3.85;84.61;96995.78;5004486;28;20077;-59
2023/01/29 00:49:18;;;;;;;0.47;0.47;;;;;;;3.80;84.02;96987.75;4996356;28;20112;-57
2023/01/29 00:52:22;;;;;;;0.60;0.60;;;;;;;3.83;83.98;96998.03;5006973;28;20049;-59
2023/01/29 00:54:31;;;;;;;0.47;0.47;;;;;;;3.80;83.95;96997.88;5008726;28;20136;-58
2023/01/29 00:56:59;;;;;;;0.50;0.50;;;;;;;2.84;85.31;96879.97;5006603;28;20054;-59
2023/01/29 00:59:26;;;;;;;0.95;0.95;;;;;;;3.46;85.08;96971.44;5008507;28;20085;-56
2023/01/29 01:04:37;;;;;;;0.40;0.40;;;;;;;3.41;86.27;97006.38;5008571;28;20529;-59
2023/01/29 01:07:05;;;;;;;1.02;1.02;;;;;;;3.12;87.19;96966.00;5007780;28;20060;-57
2023/01/29 01:12:20;;;;;;;0.98;0.98;;;;;;;3.18;88.01;96972.91;5007856;28;20085;-59
2023/01/29 01:14:48;;;;;;;0.40;0.40;;;;;;;3.24;87.71;96985.31;5008341;28;20072;-59
2023/01/29 01:17:14;;;;;;;3.90;2.90;;;;;;;3.29;88.12;96976.91;5005871;28;20128;-56
2023/01/29 01:19:41;;;;;;;0.47;0.47;;;;;;;3.10;88.19;96949.09;5008033;28;20068;-59
2023/01/29 01:22:08;;;;;;;0.40;0.40;;;;;;;3.43;87.78;96999.44;5007378;28;20050;-59
2023/01/29 01:24:35;;;;;;;3.60;3.40;;;;;;;3.51;87.66;97006.03;5006405;28;20081;-57
2023/01/29 01:27:02;;;;;;;0.40;0.40;;;;;;;3.42;88.12;96975.94;5007072;28;20133;-56
2023/01/29 01:29:29;;;;;;;0.40;0.40;;;;;;;3.44;87.35;97006.53;5006491;28;20429;-57
2023/01/29 01:31:55;;;;;;;0.80;0.80;;;;;;;3.32;88.66;96998.16;5007357;28;20053;-56
2023/01/29 01:34:22;;;;;;;9.88;2.05;;;;;;;2.95;89.07;96955.09;5006316;28;20057;-59
2023/01/29 01:36:49;;;;;;;0.50;0.50;;;;;;;3.34;88.74;97006.88;5006860;28;20081;-58
2023/01/29 01:39:15;;;;;;;0.50;0.50;;;;;;;3.22;90.05;97014.13;5007507;28;20046;-57
2023/01/29 01:41:42;;;;;;;0.82;0.82;;;;;;;3.31;89.71;97010.25;5006484;28;20052;-58
2023/01/29 01:44:46;;;;;;;0.52;0.52;;;;;;;3.37;89.63;97014.44;5007425;28;20112;-59
2023/01/29 01:47:14;;;;;;;;;;;;;;;3.33;89.00;97018.97;5007440;28;20517;-59
2023/01/29 01:49:42;;;;;;;0.40;0.40;;;;;;;3.36;89.17;97018.31;5005555;28;19925;-56
2023/01/29 01:52:10;;;;;;;0.47;0.47;;;;;;;3.32;89.49;97006.38;5005756;28;20507;-58
2023/01/29 01:54:37;;;;;;;0.40;0.40;;;;;;;3.49;88.34;97013.78;4997064;28;20058;-56
2023/01/29 01:57:14;;;;;;;0.40;0.40;;;;;;;3.43;87.85;97020.56;4991922;28;20049;-59
2023/01/29 01:59:51;;;;;;;0.45;0.45;;;;;;;3.51;87.70;97031.47;5007349;28;20049;-57
2023/01/29 02:10:41;;;;;;;0.50;0.50;;;;;;;3.38;89.04;97029.75;5006571;28;20132;-58
2023/01/29 02:13:08;;;;;;;0.95;0.95;;;;;;;3.23;91.38;97011.06;5006418;28;20069;-59
2023/01/29 02:15:35;;;;;;;0.47;0.47;;;;;;;3.03;89.81;96978.91;5005063;28;20049;-57
2023/01/29 02:18:02;;;;;;;0.50;0.50;;;;;;;2.98;91.81;96976.34;5006429;28;20137;-59
2023/01/29 02:20:33;;;;;;;0.60;0.60;;;;;;;3.00;91.65;96979.56;5005116;28;20050;-57
2023/01/29 02:23:14;;;;;;;0.40;0.40;;;;;;;3.24;91.37;97007.19;5004429;28;20054;-58
2023/01/29 02:25:44;;;;;;;0.40;0.40;;;;;;;3.32;92.19;97030.22;5006595;28;20156;-57
2023/01/29 02:28:32;;;;;;;0.40;0.40;;;;;;;3.27;92.49;97036.69;5006288;28;20077;-57
2023/01/29 02:31:19;;;;;;;1.52;1.42;;;;;;;3.24;92.45;97029.09;5006024;28;20054;-59
2023/01/29 02:34:00;;;;;;;0.40;0.40;;;;;;;3.18;92.85;97030.38;5006260;28;20437;-56
2023/01/29 02:36:41;;;;;;;0.70;0.70;;;;;;;3.18;93.84;97038.59;5006156;28;20111;-57
2023/01/29 02:39:35;;;;;;;0.40;0.40;;;;;;;3.20;94.06;97033.63;5006283;28;20649;-59
2023/01/29 02:42:14;;;;;;;0.40;0.40;;;;;;;3.19;94.65;97036.69;5008380;28;20057;-59
2023/01/29 02:44:47;;;;;;;0.40;0.40;;;;;;;2.69;94.18;97000.78;5006905;28;20061;-59
2023/01/29 02:47:29;;;;;;;0.40;0.40;;;;;;;3.00;94.88;97046.00;5005717;28;20049;-59
2023/01/29 02:50:22;;;;;;;0.40;0.40;;;;;;;2.94;95.32;97043.78;5006371;28;20054;-57
2023/01/29 02:52:55;;;;;;;0.40;0.40;;;;;;;2.91;95.81;97042.47;5005717;28;20053;-57
2023/01/29 02:55:50;;;;;;;0.40;0.40;;;;;;;2.92;96.17;97048.75;5005625;28;20057;-59
2023/01/29 02:58:45;;;;;;;2.67;2.53;;;;;;;2.89;96.85;97046.66;5036835;28;20058;-56
2023/01/29 03:01:30;;;;;;;0.40;0.40;;;;;;;2.51;97.84;96974.56;5003551;28;20089;-58
2023/01/29 03:04:04;;;;;;;0.40;0.40;;;;;;;2.96;97.20;97044.25;4986271;28;20090;-57
2023/01/29 03:06:37;;;;;;;0.60;0.60;;;;;;;2.98;97.79;97042.81;4986713;28;20058;-57
2023/01/29 03:09:13;;;;;;;0.40;0.40;;;;;;;2.57;98.53;96986.94;4986469;28;20110;-57
2023/01/29 03:11:43;;;;;;;0.40;0.40;;;;;;;2.97;98.47;97059.53;5001333;28;20050;-58
2023/01/29 03:14:19;;;;;;;1.67;1.63;;;;;;;2.91;98.11;97027.97;5003796;28;20504;-59
2023/01/29 03:16:49;;;;;;;1.50;1.30;;;;;;;2.67;98.31;96997.59;5005305;28;20517;-59
2023/01/29 03:19:27;;;;;;;0.73;0.73;;;;;;;3.01;98.39;97060.50;5005815;28;20080;-56
2023/01/29 03:21:59;;;;;;;0.40;0.40;;;;;;;2.56;99.27;97001.75;5004079;28;20136;-58
2023/01/29 03:33:17;;;;;;;0.40;0.40;;;;;;;2.86;99.95;97039.09;5004766;28;20050;-56
2023/01/29 03:35:52;;;;;;;0.40;0.40;;;;;;;3.00;100.00;97046.00;5003524;28;20137;-58
2023/01/29 03:38:19;;;;;;;0.40;0.40;;;;;;;2.75;100.00;97052.25;5004861;28;20049;-58
2023/01/29 03:40:57;;;;;;;0.95;0.95;;;;;;;2.83;100.00;97053.41;5004628;28;20137;-57
2023/01/29 03:43:37;;;;;;;0.30;0.30;;;;;;;0.93;100.00;96735.00;5004973;28;20049;-58
2023/01/29 03:46:17;;;;;;;0.40;0.40;;;;;;;2.94;100.00;97055.50;5005156;28;20054;-56
2023/01/29 03:49:11;;;;;;;0.50;0.50;;;;;;;2.91;100.00;97058.06;5005068;28;20599;-58
2023/01/29 03:51:43;;;;;;;0.40;0.40;;;;;;;2.56;100.00;96996.28;5004477;28;20081;-57
2023/01/29 03:54:28;;;;;;;0.40;0.40;;;;;;;2.96;100.00;97060.66;5004772;28;20049;-58
2023/01/29 03:57:01;;;;;;;0.40;0.40;;;;;;;2.95;100.00;97053.59;5004527;28;20509;-58
2023/01/29 03:59:47;;;;;;;;;;;;;;;2.94;100.00;97055.50;5003607;28;20088;-56
2023/01/29 04:02:26;;;;;;;0.40;0.40;;;;;;;2.89;100.00;97066.59;5004209;28;20013;-58
2023/01/29 04:05:02;;;;;;;0.40;0.40;;;;;;;2.90;100.00;97062.75;5002279;28;20156;-58
2023/01/29 04:07:32;;;;;;;0.40;0.40;;;;;;;2.81;100.00;97070.13;5004680;28;20671;-59
2023/01/29 04:10:13;;;;;;;0.40;0.40;;;;;;;2.75;100.00;97062.41;5004633;28;20229;-57
2023/01/29 04:12:55;;;;;;;0.40;0.40;;;;;;;2.62;100.00;97044.22;5004261;28;20062;-58
2023/01/29 04:15:24;;;;;;;0.40;0.40;;;;;;;2.80;100.00;97062.25;4984418;28;20113;-57
2023/01/29 04:17:52;;;;;;;0.40;0.40;;;;;;;2.85;100.00;97070.28;4983815;28;20081;-57
2023/01/29 04:20:19;;;;;;;0.40;0.40;;;;;;;2.75;100.00;97070.63;4983690;28;20050;-56
2023/01/29 04:22:48;;;;;;;0.40;0.40;;;;;;;2.68;100.00;97053.88;4993225;28;20050;-57
2023/01/29 04:25:25;;;;;;;0.40;0.40;;;;;;;2.74;100.00;97058.06;5004164;28;20151;-57
2023/01/29 04:28:15;;;;;;;0.40;0.40;;;;;;;2.59;100.00;97050.31;5003969;28;20060;-58
2023/01/29 04:31:01;;;;;;;1.15;1.15;;;;;;;2.44;100.00;97048.03;5004546;28;20575;-57
2023/01/29 04:33:32;;;;;;;0.40;0.40;;;;;;;2.76;100.00;97089.44;5004092;28;20057;-58
2023/01/29 04:36:20;;;;;;;0.40;0.40;;;;;;;2.78;100.00;97080.91;5004195;28;20540;-57
2023/01/29 04:39:05;;;;;;;0.40;0.40;;;;;;;2.79;100.00;97082.53;5004166;28;20081;-57
2023/01/29 04:41:40;;;;;;;0.40;0.40;;;;;;;2.67;100.00;97079.63;5003862;28;20436;-59
2023/01/29 04:44:23;;;;;;;0.40;0.40;;;;;;;2.68;100.00;97098.44;5004395;28;20134;-57
2023/01/29 04:47:08;;;;;;;0.40;0.40;;;;;;;2.62;100.00;97093.44;5002861;28;20062;-57
2023/01/29 04:49:53;;;;;;;0.40;0.40;;;;;;;2.63;100.00;97100.50;5002273;28;20064;-58
2023/01/29 04:52:37;;;;;;;0.68;0.68;;;;;;;2.54;100.00;97099.69;5004109;28;20077;-58
2023/01/29 04:55:06;;;;;;;;;;;;;;;2.52;100.00;97105.47;5003080;28;20137;-55
2023/01/29 04:57:36;;;;;;;0.40;0.40;;;;;;;2.49;100.00;97111.56;5003580;28;20008;-58
2023/01/29 05:00:07;;;;;;;0.40;0.40;;;;;;;2.51;100.00;97103.06;5003126;28;20103;-55
2023/01/29 05:02:38;;;;;;;1.02;1.02;;;;;;;2.43;100.00;97087.44;5003792;28;20053;-58
2023/01/29 05:05:06;;;;;;;0.40;0.40;;;;;;;2.65;100.00;97109.19;5004076;28;20089;-58
2023/01/29 05:07:36;;;;;;;1.30;0.77;;;;;;;2.51;100.00;97113.97;5004307;28;20088;-58
2023/01/29 05:10:05;;;;;;;0.40;0.40;;;;;;;2.41;100.00;97120.53;5004339;28;20464;-58
2023/01/29 05:12:34;;;;;;;0.70;0.70;;;;;;;2.37;100.00;97124.22;5004102;28;20081;-59
2023/01/29 05:15:07;;;;;;;0.40;0.40;;;;;;;2.31;100.00;97126.28;5002842;28;20092;-55
2023/01/29 05:17:33;;;;;;;0.40;0.40;;;;;;;2.33;100.00;97128.69;5003638;28;20142;-55
2023/01/29 05:20:00;;;;;;;4.82;4.53;;;;;;;2.37;100.00;97135.16;5003720;28;20082;-55
2023/01/29 05:22:28;;;;;;;0.50;0.50;;;;;;;2.45;100.00;97137.13;5003731;28;20050;-59
2023/01/29 05:24:54;;;;;;;0.40;0.40;;;;;;;2.29;100.00;97111.34;5003531;28;20509;-59
2023/01/29 05:30:19;;;;;;;0.45;0.45;;;;;;;2.08;100.00;97143.03;5003873;28;20054;-55
2023/01/29 05:32:45;;;;;;;0.40;0.40;;;;;;;2.01;100.00;97150.91;5003553;28;20116;-60
2023/01/29 05:35:12;;;;;;;0.40;0.40;;;;;;;1.80;100.00;97147.06;5006281;28;20060;-59
2023/01/29 05:37:39;;;;;;;0.50;0.50;;;;;;;1.77;100.00;97153.16;5007553;28;20058;-61
2023/01/29 05:40:08;;;;;;;0.40;0.40;;;;;;;1.83;100.00;97168.28;5006488;28;20061;-56
2023/01/29 05:42:35;;;;;;;1.13;1.10;;;;;;;1.83;100.00;97130.06;5007154;28;20054;-55
2023/01/29 05:45:02;;;;;;;0.30;0.30;;;;;;;2.12;100.00;97154.97;5007613;28;20073;-56
2023/01/29 05:47:28;;;;;;;0.40;0.40;;;;;;;2.11;100.00;97170.56;5005876;28;20094;-56
2023/01/29 05:49:55;;;;;;;0.32;0.32;;;;;;;2.25;100.00;97171.28;5006564;28;20089;-56
2023/01/29 05:52:22;;;;;;;0.40;0.40;;;;;;;2.36;100.00;97177.25;5006454;28;20049;-55
2023/01/29 05:54:48;;;;;;;2.25;1.02;;;;;;;2.28;100.00;97153.44;5007019;28;20085;-58
2023/01/29 05:57:15;;;;;;;0.95;0.93;;;;;;;2.37;100.00;97174.22;5005433;28;20076;-55
2023/01/29 05:59:41;;;;;;;0.40;0.40;;;;;;;2.43;100.00;97178.44;5005457;28;20057;-55
2023/01/29 06:02:08;;;;;;;0.40;0.40;;;;;;;2.51;100.00;97185.06;5006761;28;20144;-57
2023/01/29 06:04:35;;;;;;;0.40;0.40;;;;;;;2.36;100.00;97166.31;5006964;28;20152;-56
2023/01/29 06:07:02;;;;;;;5.47;1.70;;;;;;;2.37;100.00;97196.06;5005593;28;20491;-55
2023/01/29 06:09:28;;;;;;;0.38;0.38;;;;;;;2.27;100.00;97195.53;5005724;28;20081;-57
2023/01/29 06:11:55;;;;;;;0.40;0.40;;;;;;;1.91;100.00;97154.69;5006783;28;20049;-58
2023/01/29 06:14:22;;;;;;;1.30;0.80;;;;;;;2.25;100.00;97168.53;5005236;28;20069;-57
2023/01/29 06:16:48;;;;;;;0.40;0.40;;;;;;;2.41;100.00;97201.72;5005846;28;20578;-57
2023/01/29 06:19:16;;;;;;;0.40;0.40;;;;;;;2.43;100.00;97180.34;5006770;28;20074;-57
2023/01/29 06:21:43;;;;;;;0.30;0.30;;;;;;;2.55;100.00;97180.56;5006171;28;20436;-56
2023/01/29 06:24:10;;;;;;;0.40;0.40;;;;;;;2.65;100.00;97207.63;5005955;28;20074;-59
2023/01/29 06:26:36;;;;;;;0.40;0.40;;;;;;;2.56;100.00;97176.72;5005997;28;20046;-55
2023/01/29 06:29:03;;;;;;;0.40;0.40;;;;;;;2.28;100.00;97205.34;5006455;28;20494;-55
2023/01/29 06:31:30;;;;;;;0.73;0.73;;;;;;;1.80;100.00;97095.19;5006138;28;20128;-57
2023/01/29 06:34:08;;;;;;;0.80;0.80;;;;;;;2.65;100.00;97207.63;5005889;28;20066;-57
2023/01/29 06:36:35;;;;;;;0.40;0.40;;;;;;;2.68;100.00;97207.00;5005128;28;20520;-55
2023/01/29 06:39:02;;;;;;;0.45;0.45;;;;;;;2.60;100.00;97215.97;5006247;28;20053;-55
2023/01/29 06:41:29;;;;;;;0.45;0.45;;;;;;;2.73;100.00;97221.34;5005989;28;20053;-57
2023/01/29 06:43:56;;;;;;;0.95;0.95;;;;;;;2.73;100.00;97220.53;5006280;28;20128;-55
2023/01/29 06:46:22;;;;;;;0.65;0.65;;;;;;;2.64;100.00;97223.22;5004885;28;20054;-57
2023/01/29 06:48:49;;;;;;;0.82;0.82;;;;;;;2.80;100.00;97231.81;5006441;28;20485;-57
2023/01/29 06:51:16;;;;;;;3.72;1.05;;;;;;;2.83;100.00;97228.44;5003331;28;20146;-58
2023/01/29 06:53:43;;;;;;;0.85;0.85;;;;;;;2.33;100.00;97232.53;4986749;28;20066;-55
2023/01/29 06:56:12;;;;;;;2.13;1.63;;;;;;;1.37;100.00;97149.47;4985717;28;20552;-57
2023/01/29 06:58:38;;;;;;;1.30;1.20;;;;;;;1.93;100.00;97234.38;4985653;28;20284;-61
2023/01/29 07:01:09;;;;;;;0.40;0.40;;;;;;;1.11;100.00;97086.53;5018345;28;20500;-56
2023/01/29 07:03:41;;;;;;;0.30;0.30;;;;;;;2.38;100.00;97232.41;5006108;28;20054;-55
2023/01/29 07:06:08;;;;;;;0.30;0.30;;;;;;;2.68;100.00;97239.81;4998588;28;20061;-58
2023/01/29 07:08:39;;;;;;;0.90;0.90;;;;;;;2.91;100.00;97244.06;5005660;28;20530;-57
2023/01/29 07:11:06;;;;;;;0.43;0.43;;;;;;;2.96;100.00;97219.31;5005150;28;20093;-56
2023/01/29 07:13:33;;;;;;;0.40;0.40;;;;;;;2.81;100.00;97184.22;5005255;28;20548;-58
2023/01/29 07:16:00;;;;;;;0.40;0.40;;;;;;;3.25;100.00;97237.91;5005253;28;20081;-57
2023/01/29 07:18:28;;;;;;;0.40;0.40;;;;;;;3.25;100.00;97233.25;5005416;28;20435;-56
2023/01/29 07:20:56;;;;;;;0.40;0.40;;;;;;;3.29;100.00;97236.94;5003589;28;20046;-56
2023/01/29 07:23:23;;;;;;;0.35;0.35;;;;;;;3.14;100.00;97242.88;5004350;28;20045;-55
2023/01/29 07:25:50;;;;;;;0.82;0.82;;;;;;;2.49;100.00;97170.91;5005034;28;20058;-57
2023/01/29 07:28:19;;;;;;;0.50;0.50;;;;;;;2.90;100.00;97253.41;5005728;28;20058;-56
2023/01/29 07:30:46;;;;;;;0.40;0.40;;;;;;;2.86;100.00;97246.97;5005220;28;20137;-55
2023/01/29 07:33:12;;;;;;;0.63;0.60;;;;;;;2.79;100.00;97246.63;5005205;28;20096;-55
2023/01/29 07:35:41;;;;;;;0.40;0.40;;;;;;;3.22;100.00;97244.03;5005099;28;20531;-56
2023/01/29 07:38:10;;;;;;;0.40;0.40;;;;;;;1.60;100.00;96989.25;5004706;28;20108;-57
2023/01/29 07:40:36;;;;;;;0.40;0.40;;;;;;;3.21;100.00;97248.69;5003702;28;20133;-57
2023/01/29 07:43:05;;;;;;;0.40;0.40;;;;;;;3.43;100.00;97234.09;5003508;28;20547;-57
2023/01/29 07:45:35;;;;;;;0.40;0.40;;;;;;;3.67;100.00;97254.41;5004482;28;20050;-56
2023/01/29 07:48:03;;;;;;;2.47;0.80;;;;;;;3.46;100.00;97256.19;5004512;28;20152;-57
2023/01/29 07:50:32;;;;;;;0.95;0.95;;;;;;;3.24;100.00;97259.00;5004595;28;20088;-57
2023/01/29 07:52:59;;;;;;;1.25;1.17;;;;;;;2.90;100.00;97245.22;5004737;28;20125;-57
2023/01/29 07:55:26;;;;;;;0.40;0.40;;;;;;;3.38;100.00;97269.84;5004246;28;20064;-56
2023/01/29 07:57:57;;;;;;;0.85;0.85;;;;;;;3.62;100.00;97264.72;5004259;28;20149;-56
2023/01/29 08:00:24;;;;;;;1.77;1.52;;;;;;;3.42;100.00;97271.63;5004682;28;20046;-57
2023/01/29 08:02:50;;;;;;;0.40;0.40;;;;;;;3.31;100.00;97259.34;5003701;28;20547;-57
2023/01/29 08:05:17;;;;;;;0.40;0.40;;;;;;;3.70;100.00;97272.94;5004709;28;20093;-55
2023/01/29 08:07:44;;;;;;;0.40;0.40;;;;;;;3.49;98.31;97194.47;5004108;28;20053;-57
2023/01/29 08:10:22;;;;;;;0.50;0.50;;;;;;;4.09;96.34;97259.13;5004327;28;20065;-56
2023/01/29 08:12:57;;;;;;;0.50;0.50;;;;;;;4.16;96.40;97251.19;5002806;28;20119;-56
2023/01/29 08:15:24;;;;;;;0.50;0.50;;;;;;;4.13;94.21;97259.25;5002891;28;20085;-57
2023/01/29 08:17:52;;;;;;;0.43;0.43;;;;;;;3.67;96.93;97262.63;5004345;28;20053;-58
2023/01/29 08:20:24;;;;;;;0.60;0.60;;;;;;;4.12;97.75;97279.56;5005260;28;20402;-58
2023/01/29 08:22:59;;;;;;;0.95;0.95;;;;;;;4.06;94.74;97276.19;5003779;28;20057;-56
2023/01/29 08:25:26;;;;;;;0.50;0.50;;;;;;;4.18;93.00;97279.09;4984769;28;20143;-57
2023/01/29 08:27:53;;;;;;;0.40;0.40;;;;;;;4.24;93.61;97277.78;4984852;28;20073;-56
2023/01/29 08:30:20;;;;;;;0.50;0.50;;;;;;;3.71;92.68;97192.41;4984830;28;20050;-58
2023/01/29 08:32:46;;;;;;;0.50;0.50;;;;;;;4.33;92.70;97283.28;4993944;28;20061;-56
2023/01/29 08:35:13;;;;;;;0.50;0.50;;;;;;;4.41;91.03;97288.75;5002742;28;20110;-57
2023/01/29 08:37:39;;;;;;;0.50;0.50;;;;;;;4.31;90.27;97285.53;5004058;28;20054;-56
2023/01/29 08:40:08;;;;;;;0.50;0.50;;;;;;;4.29;91.07;97291.34;5003898;28;20108;-56
2023/01/29 08:42:35;;;;;;;0.47;0.47;;;;;;;4.18;91.68;97273.63;5003905;28;20132;-57
2023/01/29 08:45:02;;;;;;;0.50;0.50;;;;;;;4.30;93.38;97305.88;5004140;28;20053;-56
2023/01/29 08:47:28;;;;;;;0.50;0.50;;;;;;;4.38;93.45;97283.91;5002537;28;20465;-56
2023/01/29 08:49:55;;;;;;;0.40;0.40;;;;;;;4.40;92.61;97292.63;5002849;28;20053;-57
2023/01/29 08:52:22;;;;;;;0.45;0.45;;;;;;;4.43;92.95;97289.22;5002402;28;20053;-57
2023/01/29 08:54:48;;;;;;;0.50;0.50;;;;;;;4.11;90.80;97237.66;5003513;28;20532;-56
2023/01/29 08:57:15;;;;;;;0.50;0.50;;;;;;;4.47;91.78;97294.88;5003370;28;20054;-56
2023/01/29 08:59:42;;;;;;;0.47;0.47;;;;;;;3.79;92.99;97226.38;5003908;28;20050;-58
2023/01/29 09:02:10;;;;;;;0.93;0.93;;;;;;;4.11;94.02;97306.16;5003612;28;20115;-56
2023/01/29 09:04:37;;;;;;;0.50;0.50;;;;;;;4.25;94.67;97300.53;5004251;28;20046;-56
2023/01/29 09:07:03;;;;;;;0.50;0.50;;;;;;;4.30;94.08;97290.19;5003925;28;20085;-56
2023/01/29 09:09:30;;;;;;;0.50;0.50;;;;;;;4.28;93.78;97283.44;5005133;28;20088;-57
2023/01/29 09:11:57;;;;;;;0.45;0.45;;;;;;;4.17;93.28;97279.41;5007366;28;20087;-56
2023/01/29 09:14:23;;;;;;;0.50;0.50;;;;;;;4.36;93.41;97308.09;5007920;28;20050;-56
2023/01/29 09:16:50;;;;;;;0.40;0.40;;;;;;;4.60;93.33;97297.41;5007519;28;20058;-56
2023/01/29 09:19:16;;;;;;;1.00;1.00;;;;;;;4.76;93.05;97302.41;5007759;28;20053;-56
2023/01/29 09:21:43;;;;;;;0.50;0.50;;;;;;;4.59;90.77;97290.34;5005532;28;20445;-58
2023/01/29 09:24:10;;;;;;;0.50;0.50;;;;;;;4.46;90.51;97243.88;5007348;28;20058;-58
2023/01/29 09:26:38;;;;;;;0.50;0.50;;;;;;;4.57;90.07;97248.69;5007703;28;20054;-56
2023/01/29 09:29:05;;;;;;;0.50;0.50;;;;;;;4.87;91.48;97298.97;5007706;28;20056;-56
2023/01/29 09:31:32;;;;;;;0.50;0.50;;;;;;;4.86;92.96;97271.84;5007152;28;20137;-56
2023/01/29 09:33:59;;;;;;;0.50;0.50;;;;;;;5.00;91.58;97295.22;5007453;28;20150;-57
2023/01/29 09:36:25;;;;;;;0.50;0.50;;;;;;;4.87;90.17;97259.75;5005503;28;20410;-57
2023/01/29 09:38:52;;;;;;;0.50;0.50;;;;;;;4.99;90.71;97254.38;5006763;28;20137;-57
2023/01/29 09:41:56;;;;;;;0.50;0.50;;;;;;;5.21;88.83;97279.63;5006709;28;20085;-57
2023/01/29 09:44:29;;;;;;;0.57;0.57;;;;;;;5.26;88.61;97281.41;5007093;28;20065;-57
2023/01/29 09:46:59;;;;;;;1.95;1.85;;;;;;;5.07;87.52;97224.16;5006092;28;20575;-58
2023/01/29 09:49:33;;;;;;;0.50;0.50;;;;;;;5.15;87.79;97222.50;5005366;28;20049;-56
2023/01/29 09:52:21;;;;;;;0.50;0.50;;;;;;;5.64;86.78;97282.16;5007472;28;20497;-58
2023/01/29 09:54:51;;;;;;;0.50;0.50;;;;;;;5.79;85.52;97271.38;5006722;28;20085;-55
2023/01/29 09:57:24;;;;;;;0.57;0.57;;;;;;;6.06;84.64;97281.88;5005414;28;20589;-59
2023/01/29 09:59:51;;;;;;;;;;;;;;;6.14;84.24;97274.72;5007398;28;20528;-57
2023/01/29 10:02:36;;;;;;;0.70;0.70;;;;;;;6.11;81.68;97269.88;5006313;28;19960;-56
2023/01/29 10:05:15;;;;;;;0.60;0.60;;;;;;;6.10;84.29;97271.03;5006629;28;20045;-56
2023/01/29 10:08:07;;;;;;;1.40;1.40;;;;;;;6.38;82.87;97258.31;5005113;28;20054;-58
2023/01/29 10:10:48;;;;;;;0.60;0.60;;;;;;;6.32;81.06;97254.16;5006308;28;20045;-58
2023/01/29 10:13:33;;;;;;;0.60;0.60;;;;;;;6.27;81.65;97262.63;5006797;28;20108;-56
2023/01/29 10:16:06;;;;;;;0.90;0.90;;;;;;;6.19;81.12;97260.75;5007069;28;20092;-57
2023/01/29 10:18:57;;;;;;;1.02;1.02;;;;;;;6.36;80.21;97249.59;5005553;28;20068;-58
2023/01/29 10:21:51;;;;;;;0.60;0.60;;;;;;;6.33;78.23;97249.47;5006311;28;20054;-59
2023/01/29 10:24:31;;;;;;;1.70;1.60;;;;;;;6.39;78.83;97254.41;5005268;28;20571;-58
2023/01/29 10:26:59;;;;;;;0.60;0.60;;;;;;;6.48;75.81;97246.88;5006613;28;20096;-58
2023/01/29 10:29:27;;;;;;;0.70;0.70;;;;;;;6.50;74.91;97243.78;5006443;28;20069;-58
2023/01/29 10:32:03;;;;;;;0.70;0.70;;;;;;;6.50;75.33;97244.59;5004245;28;20460;-56
2023/01/29 10:34:34;;;;;;;0.60;0.60;;;;;;;6.53;74.41;97235.66;5004950;28;20237;-57
2023/01/29 10:37:14;;;;;;;0.60;0.60;;;;;;;6.53;73.11;97243.13;5006133;28;20120;-56
2023/01/29 10:39:41;;;;;;;0.60;0.60;;;;;;;6.46;74.99;97226.34;5005789;28;20582;-59
2023/01/29 10:42:29;;;;;;;0.50;0.50;;;;;;;6.59;77.02;97226.03;5005997;28;20073;-56
2023/01/29 10:45:05;;;;;;;0.60;0.60;;;;;;;6.72;76.92;97222.19;5006326;28;20484;-58
2023/01/29 10:47:44;;;;;;;0.63;0.63;;;;;;;6.71;77.30;97220.59;5004556;28;20588;-58
2023/01/29 10:50:10;;;;;;;0.70;0.70;;;;;;;6.74;76.05;97222.66;5006146;28;20062;-56
2023/01/29 10:53:02;;;;;;;0.57;0.57;;;;;;;6.91;75.13;97214.19;5005812;28;20057;-57
2023/01/29 10:55:37;;;;;;;0.70;0.70;;;;;;;6.78;75.00;97207.03;5005738;28;20065;-59
2023/01/29 10:58:04;;;;;;;0.60;0.60;;;;;;;6.89;76.92;97208.22;5006061;28;20097;-56
2023/01/29 11:00:38;;;;;;;0.70;0.70;;;;;;;6.86;75.74;97197.88;5004124;28;20045;-57
2023/01/29 11:03:15;;;;;;;2.20;2.10;;;;;;;7.07;73.84;97214.31;5005461;28;20469;-56
2023/01/29 11:06:09;;;;;;;0.60;0.60;;;;;;;7.10;72.49;97206.16;5005672;28;20460;-58
2023/01/29 11:09:09;;;;;;;0.60;0.60;;;;;;;7.28;72.52;97202.03;5005900;28;20050;-56
2023/01/29 11:12:10;;;;;;;0.95;0.95;;;;;;;7.46;69.10;97199.84;5005237;28;20054;-59
2023/01/29 11:14:46;;;;;;;0.70;0.70;;;;;;;7.47;68.41;97201.44;5005579;28;20077;-56
2023/01/29 11:17:15;;;;;;;1.40;1.38;;;;;;;6.53;69.95;97144.84;5004908;28;20053;-58
2023/01/29 11:19:45;;;;;;;1.50;1.40;;;;;;;7.28;68.54;97177.25;5004109;28;20054;-58
2023/01/29 11:22:18;;;;;;;0.70;0.70;;;;;;;6.99;69.09;97138.91;5005479;28;20053;-59
2023/01/29 11:24:46;;;;;;;0.70;0.70;;;;;;;7.12;64.68;97159.81;5005627;28;20503;-59
2023/01/29 11:27:24;;;;;;;0.70;0.70;;;;;;;7.49;65.15;97183.41;5004739;28;20105;-60
2023/01/29 11:29:52;;;;;;;0.80;0.80;;;;;;;7.56;64.71;97178.13;5005435;28;20058;-56
2023/01/29 11:32:22;;;;;;;0.70;0.70;;;;;;;7.62;66.14;97181.44;5005441;28;20053;-56
2023/01/29 11:35:04;;;;;;;3.03;2.92;;;;;;;7.66;65.74;97177.66;5005124;28;20049;-60
2023/01/29 11:37:37;;;;;;;0.63;0.63;;;;;;;7.77;63.89;97171.63;5005017;28;20057;-61
2023/01/29 11:40:33;;;;;;;0.80;0.80;;;;;;;7.78;65.02;97174.03;5005173;28;20133;-59
2023/01/29 11:43:25;;;;;;;0.98;0.98;;;;;;;7.77;67.76;97166.13;4989484;28;20084;-59
2023/01/29 11:45:56;;;;;;;1.20;1.10;;;;;;;7.29;64.68;97129.25;5002109;28;20540;-56
2023/01/29 11:48:31;;;;;;;9.88;3.97;;;;;;;7.47;67.14;97146.31;5004372;28;20136;-56
2023/01/29 11:50:59;;;;;;;0.90;0.90;;;;;;;7.49;65.26;97166.88;5004520;28;20127;-56
2023/01/29 11:53:32;;;;;;;0.60;0.60;;;;;;;7.31;64.12;97171.03;5003586;28;20454;-56
2023/01/29 11:56:02;;;;;;;0.60;0.60;;;;;;;7.05;64.34;97173.34;5004427;28;20440;-59
2023/01/29 11:58:33;;;;;;;0.60;0.60;;;;;;;7.03;66.92;97164.63;5004762;28;20064;-60
2023/01/29 12:01:01;;;;;;;0.80;0.80;;;;;;;6.46;67.69;97089.59;5004818;28;20206;-57
2023/01/29 12:03:36;;;;;;;0.85;0.85;;;;;;;6.74;67.69;97173.09;5004638;28;20496;-56
2023/01/29 12:06:30;;;;;;;0.95;0.95;;;;;;;6.82;66.92;97158.44;5003992;28;20053;-58
2023/01/29 12:09:00;;;;;;;0.60;0.60;;;;;;;6.90;68.85;97149.25;5004957;28;20505;-59
2023/01/29 12:11:31;;;;;;;0.70;0.70;;;;;;;6.68;67.93;97130.44;5004461;28;20050;-59
2023/01/29 12:14:22;;;;;;;2.50;2.35;;;;;;;6.79;66.65;97145.34;5004721;28;20050;-58
2023/01/29 12:17:05;;;;;;;0.63;0.63;;;;;;;6.88;65.75;97146.03;5004724;28;20557;-60
2023/01/29 12:19:37;;;;;;;0.60;0.60;;;;;;;6.90;65.20;97153.94;5004567;28;20181;-60
2023/01/29 12:22:38;;;;;;;0.60;0.60;;;;;;;6.79;65.92;97156.38;5003907;28;20053;-57
2023/01/29 12:25:20;;;;;;;2.05;1.10;;;;;;;6.70;65.44;97158.41;4984094;28;20050;-56
2023/01/29 12:28:21;;;;;;;0.70;0.70;;;;;;;6.34;65.34;97152.84;4984961;28;20090;-57
2023/01/29 12:30:57;;;;;;;0.60;0.60;;;;;;;6.35;67.84;97159.97;4997035;28;20049;-59
2023/01/29 12:33:49;;;;;;;2.45;2.35;;;;;;;5.84;65.83;97078.00;5004406;28;20575;-60
2023/01/29 12:36:23;;;;;;;2.05;0.90;;;;;;;5.78;67.43;97162.59;5001947;28;20058;-60